Time;durP1;ratioP1;P1;durP2;ratioP2;P2;SDS_P1;SDS_P2;PMS_P1;PMS_P2;Temp;Humidity;BMP_temperature;BMP_pressure;BME280_temperature;BME280_humidity;BME280_pressure;Samples;Min_cycle;Max_cycle;Signal;HPM_P1;HPM_P2
2023/07/12 00:01:21;;;;;;;9.25;5.10;;;;;;;21.97;68.62;65300.63;5051565;28;20213;-59
2023/07/12 00:03:47;;;;;;;7.45;5.22;;;;;;;22.07;68.14;65313.69;5051756;28;20371;-59
2023/07/12 00:06:16;;;;;;;10.68;5.45;;;;;;;22.06;68.56;65308.00;5051534;28;20259;-58
2023/07/12 00:08:42;;;;;;;11.27;5.47;;;;;;;21.93;70.22;65295.63;5051442;28;20701;-59
2023/07/12 00:11:16;;;;;;;5.28;4.63;;;;;;;22.00;69.72;65301.38;5051338;28;20213;-62
2023/07/12 00:13:41;;;;;;;7.03;5.50;;;;;;;22.03;69.56;65309.28;5051576;28;20271;-58
2023/07/12 00:16:19;;;;;;;6.93;5.38;;;;;;;21.82;70.09;65283.47;5051191;28;20225;-58
2023/07/12 00:18:45;;;;;;;9.27;5.10;;;;;;;21.70;70.72;65271.28;5050005;28;20227;-58
2023/07/12 00:21:12;;;;;;;8.27;5.18;;;;;;;21.58;71.66;65258.00;5049886;28;20244;-58
2023/07/12 00:23:38;;;;;;;6.15;5.43;;;;;;;21.69;71.38;65269.63;5051179;28;20292;-58
2023/07/12 00:26:19;;;;;;;5.80;5.20;;;;;;;21.70;71.62;65270.72;5033246;28;20213;-59
2023/07/12 00:28:45;;;;;;;7.95;5.30;;;;;;;21.66;72.18;65266.28;5051266;28;20285;-59
2023/07/12 00:31:10;;;;;;;7.05;4.93;;;;;;;21.55;72.35;65254.66;5051034;28;20318;-59
2023/07/12 00:33:36;;;;;;;7.38;5.65;;;;;;;21.53;73.30;65252.47;5049681;28;20546;-57
2023/07/12 00:36:02;;;;;;;5.40;4.80;;;;;;;21.45;73.48;65246.16;5032617;28;20217;-59
2023/07/12 00:38:27;;;;;;;9.48;5.28;;;;;;;21.36;73.94;65233.66;5050676;28;20292;-59
2023/07/12 00:41:04;;;;;;;7.72;5.18;;;;;;;21.39;74.01;65236.97;5050884;28;20233;-59
2023/07/12 00:43:48;;;;;;;7.82;5.68;;;;;;;21.40;74.59;65238.09;5051270;28;20296;-58
2023/07/12 00:46:53;;;;;;;8.05;5.15;;;;;;;21.33;75.16;65227.78;5050981;28;20205;-59
2023/07/12 00:49:18;;;;;;;6.22;5.32;;;;;;;21.29;76.02;65225.38;4950835;29;20562;-58
2023/07/12 00:51:59;;;;;;;7.82;5.75;;;;;;;21.22;76.67;65217.63;4950949;28;20295;-58
2023/07/12 00:54:27;;;;;;;8.77;5.95;;;;;;;21.25;76.95;65220.94;4991196;28;20221;-59
2023/07/12 00:56:53;;;;;;;6.18;5.00;;;;;;;21.27;76.86;65221.13;5050604;28;20300;-59
2023/07/12 00:59:26;;;;;;;6.70;5.50;;;;;;;21.15;77.98;65213.00;5051238;28;20311;-59
2023/07/12 01:01:58;;;;;;;7.65;5.70;;;;;;;21.27;77.63;65223.69;5050627;28;20274;-59
2023/07/12 01:04:28;;;;;;;6.47;5.47;;;;;;;21.27;77.03;65226.25;5049989;28;20201;-58
2023/07/12 01:06:54;;;;;;;6.88;5.85;;;;;;;21.22;78.02;65215.63;5050536;28;20201;-60
2023/07/12 01:09:21;;;;;;;6.38;5.20;;;;;;;21.27;77.79;65223.16;5050787;28;20731;-58
2023/07/12 01:11:47;;;;;;;9.45;5.93;;;;;;;21.14;79.68;65208.78;5050494;28;20213;-59
2023/07/12 01:14:16;;;;;;;8.40;5.20;;;;;;;21.16;79.24;65211.00;5050609;28;20263;-59
2023/07/12 01:16:49;;;;;;;7.32;5.97;;;;;;;21.21;79.65;65217.06;5050235;28;20352;-59
2023/07/12 01:19:14;;;;;;;10.45;5.95;;;;;;;21.24;79.91;65220.41;5033461;28;20209;-59
2023/07/12 01:21:49;;;;;;;8.88;5.05;;;;;;;21.29;79.82;65223.34;5050298;28;20560;-58
2023/07/12 01:24:16;;;;;;;9.63;5.63;;;;;;;21.29;79.13;65223.34;5050604;28;20288;-59
2023/07/12 01:26:46;;;;;;;7.82;5.22;;;;;;;21.14;79.99;65211.34;5050339;28;20202;-58
2023/07/12 01:29:12;;;;;;;12.13;6.13;;;;;;;21.09;80.41;65203.25;5050489;28;20209;-59
2023/07/12 01:31:39;;;;;;;7.25;5.53;;;;;;;21.02;82.02;65196.06;5050126;28;20259;-59
2023/07/12 01:34:06;;;;;;;8.63;6.03;;;;;;;21.08;81.38;65205.25;5050390;28;20762;-57
2023/07/12 01:36:31;;;;;;;9.75;5.45;;;;;;;21.04;81.89;65195.72;5050019;28;20219;-59
2023/07/12 01:38:58;;;;;;;6.20;5.60;;;;;;;21.00;82.09;65193.28;5050345;28;20197;-60
2023/07/12 01:41:25;;;;;;;6.25;5.50;;;;;;;21.03;81.90;65199.19;5050043;28;20236;-58
2023/07/12 01:43:52;;;;;;;6.45;5.30;;;;;;;20.93;82.97;65186.66;5050349;28;20217;-60
2023/07/12 01:46:17;;;;;;;7.22;6.22;;;;;;;20.98;82.72;65191.63;5050411;28;20224;-59
2023/07/12 01:48:43;;;;;;;8.48;6.07;;;;;;;20.91;83.66;65187.00;5050294;28;20205;-58
2023/07/12 01:51:09;;;;;;;6.68;5.15;;;;;;;20.89;83.20;65181.66;5049984;28;20209;-58
2023/07/12 01:53:35;;;;;;;6.28;5.68;;;;;;;20.78;84.34;65170.06;5050105;28;20311;-57
2023/07/12 01:56:03;;;;;;;7.15;5.90;;;;;;;20.81;84.51;65175.94;5049253;28;20336;-59
2023/07/12 01:58:29;;;;;;;9.60;6.43;;;;;;;20.80;84.51;65174.28;5031888;28;20244;-60
2023/07/12 02:00:56;;;;;;;7.93;6.10;;;;;;;20.87;85.02;65179.47;5048365;28;20331;-58
2023/07/12 02:03:22;;;;;;;6.90;5.22;;;;;;;20.74;85.60;65163.09;5048573;28;20232;-58
2023/07/12 02:05:48;;;;;;;7.78;5.85;;;;;;;20.73;86.12;65161.97;5049805;28;20236;-59
2023/07/12 02:08:14;;;;;;;7.97;5.30;;;;;;;20.73;86.40;65164.53;5049995;28;20588;-59
2023/07/12 02:10:40;;;;;;;7.30;5.78;;;;;;;20.68;85.37;65161.59;5049778;28;20201;-60
2023/07/12 02:13:06;;;;;;;11.73;5.93;;;;;;;20.72;85.34;65163.44;5049866;28;20245;-58
2023/07/12 02:15:31;;;;;;;10.70;6.63;;;;;;;20.74;86.19;65167.66;5051038;28;20240;-58
2023/07/12 02:17:57;;;;;;;10.07;6.50;;;;;;;20.51;88.11;65139.66;5053152;28;20220;-59
2023/07/12 02:20:23;;;;;;;9.27;5.90;;;;;;;20.50;87.33;65138.56;5052299;28;20205;-58
2023/07/12 02:22:50;;;;;;;6.78;5.88;;;;;;;20.69;86.30;65157.56;5052811;28;20688;-59
2023/07/12 02:25:17;;;;;;;8.20;6.47;;;;;;;20.65;86.59;65152.56;5053074;28;20228;-59
2023/07/12 02:27:46;;;;;;;9.68;6.25;;;;;;;20.68;87.39;65158.47;5051469;28;20217;-58
2023/07/12 02:30:16;;;;;;;6.55;5.82;;;;;;;20.83;87.14;65177.59;5053263;28;20170;-59
2023/07/12 02:32:42;;;;;;;9.80;6.30;;;;;;;20.74;88.13;65165.09;5052879;28;20205;-59
2023/07/12 02:35:08;;;;;;;6.88;5.90;;;;;;;20.75;88.38;65166.19;5052965;28;20214;-58
2023/07/12 02:37:34;;;;;;;6.82;5.85;;;;;;;20.83;88.04;65175.03;5034873;28;20612;-58
2023/07/12 02:39:59;;;;;;;6.90;6.03;;;;;;;20.84;88.31;65173.59;5035043;28;20793;-58
2023/07/12 02:42:25;;;;;;;9.10;5.85;;;;;;;20.58;89.89;65149.97;5052871;28;20216;-59
2023/07/12 02:44:51;;;;;;;8.30;6.03;;;;;;;20.73;89.09;65161.41;5034995;28;20209;-59
2023/07/12 02:47:18;;;;;;;6.85;6.10;;;;;;;20.56;89.67;65148.28;5052660;28;20703;-60
2023/07/12 02:49:44;;;;;;;9.25;6.10;;;;;;;20.51;90.34;65140.22;5034902;28;20312;-59
2023/07/12 02:52:09;;;;;;;9.32;6.47;;;;;;;20.56;90.70;65145.75;5052562;28;20571;-58
2023/07/12 02:54:35;;;;;;;8.85;6.43;;;;;;;20.64;90.58;65156.59;5053065;28;20202;-59
2023/07/12 02:57:03;;;;;;;7.38;6.18;;;;;;;20.64;90.50;65154.03;5052240;28;20233;-58
2023/07/12 02:59:29;;;;;;;10.10;5.97;;;;;;;20.60;90.07;65149.63;5052784;28;20636;-59
2023/07/12 03:01:55;;;;;;;10.55;6.22;;;;;;;20.64;89.99;65154.03;5052484;28;20206;-58
2023/07/12 03:04:21;;;;;;;11.02;7.38;;;;;;;20.67;89.99;65157.91;5052831;28;20271;-58
2023/07/12 03:06:48;;;;;;;8.52;7.25;;;;;;;20.69;90.76;65157.00;5052344;28;20212;-59
2023/07/12 03:09:14;;;;;;;9.82;7.68;;;;;;;20.80;90.83;65174.28;5052604;28;20343;-58
2023/07/12 03:11:40;;;;;;;9.75;7.00;;;;;;;20.62;91.79;65152.38;5052350;28;20707;-59
2023/07/12 03:14:06;;;;;;;8.30;6.95;;;;;;;20.64;92.52;65154.59;5052459;28;20229;-59
2023/07/12 03:16:32;;;;;;;8.93;7.18;;;;;;;20.63;92.57;65153.47;5052071;28;20217;-59
2023/07/12 03:18:59;;;;;;;8.38;7.47;;;;;;;20.75;92.56;65168.75;5052531;28;20205;-60
2023/07/12 03:21:25;;;;;;;10.05;7.32;;;;;;;20.76;92.27;65167.88;5052094;28;20209;-58
2023/07/12 03:23:50;;;;;;;13.15;8.38;;;;;;;20.78;92.82;65169.50;5052391;28;20279;-58
2023/07/12 03:26:23;;;;;;;10.55;7.55;;;;;;;20.93;92.39;65183.53;5051707;28;20294;-60
2023/07/12 03:28:49;;;;;;;11.40;7.80;;;;;;;20.83;92.73;65175.59;5050672;28;20221;-58
2023/07/12 03:31:16;;;;;;;13.00;7.35;;;;;;;20.82;93.12;65176.50;5052221;28;20730;-58
2023/07/12 03:33:43;;;;;;;10.43;7.85;;;;;;;20.61;93.52;65150.72;5034425;28;20205;-58
2023/07/12 03:36:09;;;;;;;11.23;7.75;;;;;;;20.69;94.17;65162.13;5051985;28;20236;-61
2023/07/12 03:38:35;;;;;;;9.77;7.20;;;;;;;20.76;95.35;65170.44;5052138;28;20657;-60
2023/07/12 03:41:03;;;;;;;8.30;7.25;;;;;;;20.73;95.08;65163.97;5051920;28;20201;-59
2023/07/12 03:43:30;;;;;;;10.45;7.45;;;;;;;20.73;94.22;65164.53;5051878;28;20208;-58
2023/07/12 03:45:56;;;;;;;9.38;7.00;;;;;;;20.68;95.13;65158.47;5051977;28;20237;-58
2023/07/12 03:48:23;;;;;;;13.07;8.05;;;;;;;20.45;95.59;65130.47;5051990;28;20235;-61
2023/07/12 03:50:50;;;;;;;11.07;8.07;;;;;;;20.39;96.45;65128.97;5051889;28;20668;-57
2023/07/12 03:53:17;;;;;;;10.02;8.02;;;;;;;20.34;96.40;65118.34;5050288;28;20292;-58
2023/07/12 03:55:45;;;;;;;11.40;8.02;;;;;;;20.24;96.75;65109.84;5051885;28;20228;-59
2023/07/12 03:58:13;;;;;;;9.68;7.50;;;;;;;20.30;95.93;65116.47;5051736;28;20672;-59
2023/07/12 04:00:42;;;;;;;11.85;7.78;;;;;;;20.27;96.94;65113.69;5051601;28;20288;-58
2023/07/12 04:03:07;;;;;;;10.48;8.23;;;;;;;20.23;96.67;65109.28;5051530;28;20201;-59
2023/07/12 04:05:37;;;;;;;11.75;9.15;;;;;;;20.35;96.61;65119.41;5051333;28;20207;-59
2023/07/12 04:08:02;;;;;;;9.15;8.25;;;;;;;20.42;96.40;65132.28;5051430;28;20212;-60
2023/07/12 04:10:28;;;;;;;10.85;8.52;;;;;;;20.46;97.08;65134.16;5051436;28;20280;-58
2023/07/12 04:12:53;;;;;;;13.70;8.77;;;;;;;20.62;96.24;65151.84;5051337;28;20255;-59
2023/07/12 04:15:19;;;;;;;12.77;8.57;;;;;;;20.75;95.74;65169.31;5051506;28;20259;-58
2023/07/12 04:17:44;;;;;;;12.45;8.23;;;;;;;20.77;96.04;65168.41;5051253;28;20566;-59
2023/07/12 04:20:12;;;;;;;14.77;9.00;;;;;;;20.81;96.34;65177.94;5051315;28;20209;-59
2023/07/12 04:22:37;;;;;;;10.77;8.18;;;;;;;20.81;96.56;65172.81;5051111;28;20274;-58
2023/07/12 04:25:03;;;;;;;11.43;8.70;;;;;;;21.05;95.87;65199.38;5051619;28;20684;-59
2023/07/12 04:27:29;;;;;;;10.63;8.73;;;;;;;21.05;95.54;65199.38;5049870;28;20197;-59
2023/07/12 04:29:55;;;;;;;14.98;8.82;;;;;;;21.05;96.63;65198.84;5051659;28;20224;-59
2023/07/12 04:32:20;;;;;;;12.30;10.18;;;;;;;21.27;95.58;65221.13;5050943;28;20656;-59
2023/07/12 04:34:47;;;;;;;14.88;9.23;;;;;;;21.20;96.52;65215.97;5051266;28;20208;-59
2023/07/12 04:37:13;;;;;;;14.77;9.70;;;;;;;21.38;96.01;65235.88;5032940;28;20291;-59
2023/07/12 04:39:39;;;;;;;11.55;8.27;;;;;;;21.35;94.42;65229.44;5051049;28;20688;-58
2023/07/12 04:42:05;;;;;;;12.40;8.23;;;;;;;21.26;95.52;65225.16;5032739;28;20559;-59
2023/07/12 04:44:30;;;;;;;12.05;8.63;;;;;;;21.41;94.72;65239.19;5051243;28;20568;-59
2023/07/12 04:46:56;;;;;;;11.50;8.63;;;;;;;21.52;92.75;65251.38;5050629;28;20767;-61
2023/07/12 04:49:22;;;;;;;12.93;10.10;;;;;;;21.36;92.49;65233.09;5049290;28;20267;-59
2023/07/12 04:51:49;;;;;;;15.05;10.20;;;;;;;21.21;93.96;65214.50;5050567;28;20672;-58
2023/07/12 04:54:14;;;;;;;15.10;10.00;;;;;;;21.36;93.54;65231.09;5050747;28;20269;-59
2023/07/12 04:56:40;;;;;;;12.32;7.75;;;;;;;21.35;90.71;65235.13;5050649;28;20315;-59
2023/07/12 04:59:05;;;;;;;8.55;7.35;;;;;;;21.46;91.15;65244.72;5050451;28;20703;-60
2023/07/12 05:01:31;;;;;;;9.13;7.47;;;;;;;21.49;88.69;65248.03;5050579;28;20205;-60
2023/07/12 05:03:57;;;;;;;11.93;7.53;;;;;;;21.43;88.99;65241.41;5050423;28;20216;-61
2023/07/12 05:06:23;;;;;;;13.52;8.43;;;;;;;21.26;93.71;65222.59;5050462;28;20296;-58
2023/07/12 05:08:48;;;;;;;10.10;7.55;;;;;;;21.58;91.57;65254.88;5032762;28;20213;-59
2023/07/12 05:11:13;;;;;;;9.45;7.85;;;;;;;21.67;90.27;65267.94;5050393;28;20579;-58
2023/07/12 05:13:39;;;;;;;10.70;8.02;;;;;;;21.67;91.52;65267.94;5050517;28;20738;-58
2023/07/12 05:16:05;;;;;;;7.97;7.00;;;;;;;21.75;87.90;65276.25;5050052;28;20217;-60
2023/07/12 05:18:30;;;;;;;9.23;7.22;;;;;;;21.75;87.86;65274.22;5050439;28;20582;-60
2023/07/12 05:20:56;;;;;;;11.30;7.90;;;;;;;21.75;88.53;65278.81;5050406;28;20593;-59
2023/07/12 05:23:21;;;;;;;8.02;7.22;;;;;;;21.77;88.61;65277.91;5050321;28;20209;-59
2023/07/12 05:25:56;;;;;;;13.10;7.82;;;;;;;21.64;89.38;65264.06;5050129;28;20590;-60
2023/07/12 05:28:23;;;;;;;8.88;7.70;;;;;;;21.65;90.81;65265.72;5032491;28;20288;-59
2023/07/12 05:30:48;;;;;;;13.18;7.75;;;;;;;21.75;91.02;65278.81;5050335;28;20208;-58
2023/07/12 05:33:15;;;;;;;11.90;8.40;;;;;;;21.84;90.39;65285.66;5050341;28;20556;-59
2023/07/12 05:35:41;;;;;;;11.75;7.95;;;;;;;21.81;90.97;65284.91;5049035;28;20259;-59
2023/07/12 05:38:07;;;;;;;11.15;8.55;;;;;;;21.89;91.61;65291.78;5050041;28;20589;-59
2023/07/12 05:40:32;;;;;;;12.70;8.23;;;;;;;21.87;91.79;65291.56;5049990;28;20193;-58
2023/07/12 05:42:58;;;;;;;11.30;8.45;;;;;;;21.89;92.18;65291.78;5050000;28;20576;-59
2023/07/12 05:45:24;;;;;;;14.52;9.52;;;;;;;22.02;91.98;65308.72;5049990;28;20268;-58
2023/07/12 05:47:50;;;;;;;15.00;11.05;;;;;;;22.03;93.45;65309.81;5049914;28;20209;-60
2023/07/12 05:50:19;;;;;;;18.23;14.10;;;;;;;22.09;93.70;65313.91;5049306;28;20201;-59
2023/07/12 05:52:45;;;;;;;14.13;10.68;;;;;;;22.30;92.46;65334.03;5050142;28;20228;-59
2023/07/12 05:55:14;;;;;;;14.05;9.73;;;;;;;22.22;93.67;65325.72;5050034;28;20275;-59
2023/07/12 05:57:39;;;;;;;14.57;10.82;;;;;;;22.27;92.27;65333.81;5049824;28;20202;-59
2023/07/12 06:00:08;;;;;;;17.10;10.40;;;;;;;22.41;90.71;65349.31;5050167;28;20680;-58
2023/07/12 06:02:33;;;;;;;15.10;10.00;;;;;;;22.61;87.17;65370.94;5049821;28;20205;-58
2023/07/12 06:04:59;;;;;;;16.40;10.80;;;;;;;22.59;88.10;65368.72;5049747;28;20727;-59
2023/07/12 06:07:33;;;;;;;17.15;11.38;;;;;;;22.59;87.03;65365.59;5049704;28;20588;-59
2023/07/12 06:09:59;;;;;;;14.27;10.30;;;;;;;22.54;87.04;65361.13;5049575;28;20287;-59
2023/07/12 06:12:25;;;;;;;15.63;10.50;;;;;;;22.47;88.60;65352.84;5049707;28;20219;-60
2023/07/12 06:14:51;;;;;;;13.90;8.75;;;;;;;22.47;88.76;65353.41;5049670;28;20201;-59
2023/07/12 06:17:17;;;;;;;15.82;10.90;;;;;;;22.53;87.03;65359.47;5049444;28;20225;-59
2023/07/12 06:19:45;;;;;;;21.23;10.88;;;;;;;22.56;86.75;65365.38;5049460;28;20189;-60
2023/07/12 06:22:10;;;;;;;15.73;10.55;;;;;;;22.70;86.03;65380.91;5049409;28;20212;-61
2023/07/12 06:24:36;;;;;;;17.25;10.20;;;;;;;22.74;85.80;65385.34;5049898;28;20205;-59
2023/07/12 06:27:02;;;;;;;15.68;9.77;;;;;;;22.81;85.48;65390.50;5049551;28;20292;-59
2023/07/12 06:29:29;;;;;;;14.10;10.70;;;;;;;22.94;87.47;65404.91;5049613;28;20592;-59
2023/07/12 06:31:55;;;;;;;9.73;7.88;;;;;;;23.37;89.58;65454.59;5049402;28;20213;-56
2023/07/12 06:34:21;;;;;;;13.27;8.52;;;;;;;23.61;87.88;65478.03;5048110;28;20209;-55
2023/07/12 06:36:47;;;;;;;16.30;10.13;;;;;;;23.76;86.73;65497.78;5049156;28;20224;-56
2023/07/12 06:39:13;;;;;;;14.05;9.05;;;;;;;24.00;86.71;65524.41;5049709;28;20205;-57
2023/07/12 06:41:39;;;;;;;18.92;10.38;;;;;;;24.10;84.95;65535.50;5049214;28;20641;-56
2023/07/12 06:44:04;;;;;;;13.80;10.27;;;;;;;24.21;82.53;65547.16;5049484;28;20208;-56
2023/07/12 06:46:30;;;;;;;15.00;9.50;;;;;;;24.27;83.25;65551.22;5047893;28;20603;-57
2023/07/12 06:48:56;;;;;;;16.42;10.05;;;;;;;24.38;80.52;65566.00;5049496;28;20644;-55
2023/07/12 06:51:22;;;;;;;16.00;10.50;;;;;;;24.30;79.95;65556.59;5049145;28;20225;-56
2023/07/12 06:53:48;;;;;;;13.45;9.65;;;;;;;24.38;82.08;65563.41;5049313;28;20277;-57
2023/07/12 06:56:13;;;;;;;18.60;10.30;;;;;;;24.49;82.64;65569.91;5048994;28;20645;-57
2023/07/12 06:58:39;;;;;;;16.75;10.45;;;;;;;24.65;79.94;65597.97;5049275;28;20213;-56
2023/07/12 07:01:27;;;;;;;11.73;8.68;;;;;;;24.71;81.15;65599.47;5049213;28;20687;-56
2023/07/12 07:03:53;;;;;;;11.93;8.90;;;;;;;24.74;82.46;65602.81;5037143;28;20667;-55
2023/07/12 07:06:19;;;;;;;15.02;10.85;;;;;;;24.83;81.61;65617.97;5051150;28;20229;-56
2023/07/12 07:08:47;;;;;;;41.53;17.73;;;;;;;24.96;76.97;65627.22;5052692;28;20208;-55
2023/07/12 07:11:13;;;;;;;25.33;12.50;;;;;;;24.97;74.27;65628.88;5052399;28;20211;-55
2023/07/12 07:13:39;;;;;;;23.40;11.38;;;;;;;24.85;74.48;65618.16;5052379;28;20292;-55
2023/07/12 07:16:05;;;;;;;18.15;10.43;;;;;;;24.84;75.14;65614.47;5052239;28;20214;-55
2023/07/12 07:18:30;;;;;;;17.98;8.90;;;;;;;24.89;77.99;65620.00;5034573;28;20209;-56
2023/07/12 07:20:58;;;;;;;16.67;10.25;;;;;;;25.03;78.83;65635.00;5052418;28;20217;-56
2023/07/12 07:23:24;;;;;;;19.33;10.32;;;;;;;25.19;78.95;65652.19;5052450;28;20237;-56
2023/07/12 07:25:50;;;;;;;12.57;9.70;;;;;;;25.38;78.70;65673.84;5052302;28;20212;-56
2023/07/12 07:28:16;;;;;;;18.73;11.13;;;;;;;25.58;77.07;65696.06;5052356;28;20214;-56
2023/07/12 07:30:42;;;;;;;20.58;12.00;;;;;;;25.64;77.09;65702.72;5052022;28;20585;-56
2023/07/12 07:33:08;;;;;;;16.85;11.63;;;;;;;25.71;75.64;65707.91;5052086;28;20220;-56
2023/07/12 07:35:33;;;;;;;15.75;10.63;;;;;;;25.77;75.78;65716.59;5051943;28;20194;-56
2023/07/12 07:37:59;;;;;;;15.20;10.05;;;;;;;25.84;76.18;65724.38;5052016;28;20224;-56
2023/07/12 07:40:25;;;;;;;17.38;11.18;;;;;;;25.91;74.54;65731.59;5051751;28;20209;-56
2023/07/12 07:42:50;;;;;;;17.55;11.68;;;;;;;25.98;69.16;65737.31;5051531;28;20216;-56
2023/07/12 07:45:16;;;;;;;20.58;11.43;;;;;;;25.94;72.14;65732.34;5051906;28;20555;-56
2023/07/12 07:47:42;;;;;;;13.50;9.00;;;;;;;26.04;74.55;65746.03;5051722;28;20216;-57
2023/07/12 07:50:08;;;;;;;20.30;11.77;;;;;;;26.20;71.68;65763.81;5051979;28;20213;-56
2023/07/12 07:52:33;;;;;;;19.77;11.38;;;;;;;26.32;70.56;65774.56;5051738;28;20666;-56
2023/07/12 07:54:59;;;;;;;18.92;10.80;;;;;;;26.18;67.54;65762.16;5051556;28;20288;-57
2023/07/12 07:57:25;;;;;;;18.85;10.55;;;;;;;26.33;69.04;65776.22;5050318;28;20228;-55
2023/07/12 07:59:51;;;;;;;17.73;10.88;;;;;;;26.45;70.24;65791.59;5051734;28;20206;-57
2023/07/12 08:02:16;;;;;;;19.40;12.85;;;;;;;26.63;69.75;65812.16;5051650;28;20648;-57
2023/07/12 08:04:42;;;;;;;16.58;12.15;;;;;;;26.86;69.29;65836.63;5050177;28;20189;-56
2023/07/12 08:07:07;;;;;;;24.80;12.68;;;;;;;26.84;68.46;65834.38;5051563;28;20655;-56
2023/07/12 08:09:35;;;;;;;17.83;12.23;;;;;;;26.74;68.51;65823.84;5051370;28;20757;-57
2023/07/12 08:12:01;;;;;;;24.02;12.68;;;;;;;27.01;67.80;65853.28;5051101;28;20237;-56
2023/07/12 08:14:27;;;;;;;20.50;13.43;;;;;;;26.95;68.09;65844.00;5049847;28;20647;-55
2023/07/12 08:16:52;;;;;;;17.58;12.68;;;;;;;27.01;63.43;65850.69;5051189;28;20232;-56
2023/07/12 08:19:18;;;;;;;18.80;12.38;;;;;;;26.90;64.96;65841.06;5051158;28;20229;-56
2023/07/12 08:21:44;;;;;;;26.15;12.10;;;;;;;26.94;65.81;65843.47;5033372;28;20206;-56
2023/07/12 08:24:10;;;;;;;16.17;12.27;;;;;;;27.18;67.36;65872.75;5049896;28;20275;-56
2023/07/12 08:26:36;;;;;;;18.75;12.73;;;;;;;27.38;67.56;65894.44;5033331;28;20206;-56
2023/07/12 08:29:01;;;;;;;19.85;13.13;;;;;;;27.47;66.44;65904.47;5051089;28;20210;-55
2023/07/12 08:31:27;;;;;;;22.92;14.18;;;;;;;27.70;66.28;65929.47;5051097;28;20249;-56
2023/07/12 08:33:55;;;;;;;19.75;11.82;;;;;;;27.78;67.19;65938.91;5050989;28;20307;-56
2023/07/12 08:36:21;;;;;;;22.73;13.55;;;;;;;27.85;65.32;65946.72;5051066;28;20210;-56
2023/07/12 08:38:46;;;;;;;23.55;13.68;;;;;;;27.57;65.53;65915.56;5051282;28;20229;-56
2023/07/12 08:41:18;;;;;;;23.75;14.27;;;;;;;27.79;62.82;65937.44;5033132;28;20248;-57
2023/07/12 08:43:44;;;;;;;19.08;12.45;;;;;;;27.75;64.55;65935.03;5051180;28;20356;-56
2023/07/12 08:46:20;;;;;;;21.70;12.77;;;;;;;27.82;65.02;65940.78;5050953;28;20205;-55
2023/07/12 08:48:45;;;;;;;20.27;12.10;;;;;;;28.03;62.15;65966.19;5050998;28;20235;-56
2023/07/12 08:51:22;;;;;;;18.77;11.45;;;;;;;27.95;62.25;65954.69;5050965;28;20245;-57
2023/07/12 08:53:48;;;;;;;18.30;11.27;;;;;;;28.17;61.49;65981.78;5050868;28;20196;-56
2023/07/12 08:56:18;;;;;;;15.93;10.63;;;;;;;28.33;61.49;65999.00;5050697;28;20224;-55
2023/07/12 08:58:53;;;;;;;17.17;11.45;;;;;;;28.44;63.48;66008.66;5050711;28;20614;-55
2023/07/12 09:01:44;;;;;;;13.07;10.35;;;;;;;28.59;61.48;66028.53;5050767;28;20205;-58
2023/07/12 09:04:31;;;;;;;13.02;10.02;;;;;;;28.65;60.45;66035.22;5050594;28;20230;-56
2023/07/12 09:07:01;;;;;;;14.32;9.38;;;;;;;28.97;60.49;66073.44;5050549;28;20216;-57
2023/07/12 09:09:27;;;;;;;16.08;10.25;;;;;;;28.78;57.69;66046.53;5050622;28;20233;-57
2023/07/12 09:11:54;;;;;;;17.52;10.73;;;;;;;29.03;56.98;66076.94;5050545;28;20205;-56
2023/07/12 09:14:23;;;;;;;15.93;10.50;;;;;;;29.02;57.57;66076.41;5050572;28;20304;-57
2023/07/12 09:16:59;;;;;;;15.75;10.40;;;;;;;29.09;58.14;66083.09;5049132;28;20221;-59
2023/07/12 09:19:37;;;;;;;16.17;9.70;;;;;;;29.16;59.87;66090.88;5050380;28;20208;-57
2023/07/12 09:22:17;;;;;;;12.68;9.50;;;;;;;29.47;59.03;66122.81;5050309;28;20212;-56
2023/07/12 09:24:45;;;;;;;14.90;11.43;;;;;;;29.31;56.84;66108.16;5048352;28;20217;-57
2023/07/12 09:27:16;;;;;;;12.65;10.02;;;;;;;29.33;55.40;66107.22;5050277;28;20270;-55
2023/07/12 09:29:41;;;;;;;14.57;9.95;;;;;;;29.60;56.24;66140.44;5049098;28;20262;-56
2023/07/12 09:32:19;;;;;;;17.67;10.20;;;;;;;30.11;55.75;66194.16;5032346;28;20205;-56
2023/07/12 09:34:47;;;;;;;16.50;10.80;;;;;;;30.41;56.02;66227.03;5050076;28;20633;-56
2023/07/12 09:37:18;;;;;;;12.88;10.18;;;;;;;30.56;52.17;66246.38;5049758;28;20217;-57
2023/07/12 09:39:56;;;;;;;15.95;10.50;;;;;;;30.66;52.64;66254.91;5032103;28;20695;-56
2023/07/12 09:42:22;;;;;;;15.07;9.13;;;;;;;30.66;54.84;66255.47;5050264;28;20224;-56
2023/07/12 09:44:48;;;;;;;16.30;10.15;;;;;;;30.78;55.88;66265.69;5050488;28;20789;-55
2023/07/12 09:47:45;;;;;;;14.05;10.35;;;;;;;30.93;52.90;66287.09;5032282;28;20295;-55
2023/07/12 09:50:21;;;;;;;18.45;10.75;;;;;;;31.26;53.72;66319.25;5050123;28;20220;-56
2023/07/12 09:53:03;;;;;;;17.73;10.43;;;;;;;31.50;54.58;66348.06;5049980;28;20288;-56
2023/07/12 09:55:41;;;;;;;14.82;10.60;;;;;;;31.60;52.89;66361.28;5050138;28;20205;-56
2023/07/12 09:58:35;;;;;;;17.27;10.63;;;;;;;31.74;52.18;66374.28;5048565;28;20349;-56
2023/07/12 10:01:35;;;;;;;12.27;9.30;;;;;;;31.84;46.94;66385.44;5013716;28;20243;-55
2023/07/12 10:04:17;;;;;;;14.10;9.07;;;;;;;31.81;47.45;66384.72;5017425;28;20283;-56
2023/07/12 10:06:48;;;;;;;11.73;9.10;;;;;;;31.91;47.55;66393.84;5049890;28;20676;-57
2023/07/12 10:09:20;;;;;;;14.90;9.25;;;;;;;31.80;51.31;66378.94;5049658;28;20613;-55
2023/07/12 10:12:18;;;;;;;12.65;8.80;;;;;;;32.24;53.48;66428.06;5031523;28;20640;-55
2023/07/12 10:14:46;;;;;;;11.32;8.68;;;;;;;32.47;45.23;66455.25;5049795;28;20216;-55
2023/07/12 10:17:32;;;;;;;11.32;9.60;;;;;;;32.57;45.99;66469.03;5049263;28;20717;-56
2023/07/12 10:20:00;;;;;;;13.20;8.65;;;;;;;32.70;46.96;66478.91;5049714;28;20197;-57
2023/07/12 10:22:35;;;;;;;14.02;9.13;;;;;;;32.58;45.29;66467.56;5048676;28;20209;-55
2023/07/12 10:25:17;;;;;;;11.52;8.25;;;;;;;32.36;46.19;66446.13;5031703;28;20272;-56
2023/07/12 10:27:50;;;;;;;11.80;8.95;;;;;;;32.15;46.08;66420.63;5049385;28;20217;-57
2023/07/12 10:30:22;;;;;;;15.02;8.95;;;;;;;32.78;46.15;66490.44;5049655;28;20288;-55
2023/07/12 10:32:53;;;;;;;18.08;8.73;;;;;;;32.36;45.75;66443.53;5049459;28;20205;-56
2023/07/12 10:35:30;;;;;;;12.73;8.30;;;;;;;32.53;43.18;66462.53;5049623;28;20340;-57
2023/07/12 10:38:03;;;;;;;13.50;8.52;;;;;;;32.17;44.29;66419.69;5052563;28;20217;-56
2023/07/12 10:40:59;;;;;;;11.38;9.07;;;;;;;32.23;44.19;66429.00;5053018;28;20271;-55
2023/07/12 10:43:31;;;;;;;14.23;9.50;;;;;;;32.91;47.06;66507.56;5053069;28;20292;-56
2023/07/12 10:46:03;;;;;;;14.13;7.78;;;;;;;33.45;41.91;66561.56;5052927;28;20205;-57
2023/07/12 10:48:29;;;;;;;13.55;8.43;;;;;;;33.62;43.74;66585.81;5053255;28;20239;-55
2023/07/12 10:51:32;;;;;;;11.75;7.85;;;;;;;33.73;40.01;66593.44;5052744;28;20302;-56
2023/07/12 10:53:58;;;;;;;12.98;8.90;;;;;;;33.55;41.19;66573.34;5053194;28;20216;-56
2023/07/12 10:56:26;;;;;;;10.07;7.70;;;;;;;34.35;42.35;66662.22;5052417;28;20676;-57
2023/07/12 10:58:55;;;;;;;14.00;8.07;;;;;;;34.73;41.82;66704.16;5052758;28;20209;-56
2023/07/12 11:01:43;;;;;;;13.48;9.27;;;;;;;34.51;41.44;66682.75;5052829;28;20213;-55
2023/07/12 11:04:10;;;;;;;14.70;8.98;;;;;;;34.92;39.82;66724.88;5052785;28;20205;-57
2023/07/12 11:06:52;;;;;;;12.32;8.00;;;;;;;35.26;40.65;66765.53;5052465;28;20213;-57
2023/07/12 11:09:18;;;;;;;9.68;8.60;;;;;;;35.14;39.33;66752.13;5037396;28;20212;-56
2023/07/12 11:11:58;;;;;;;12.88;6.35;;;;;;;34.30;37.50;66658.69;5052420;28;20202;-55
2023/07/12 11:14:43;;;;;;;7.95;7.05;;;;;;;34.05;37.81;66628.13;5052316;28;20280;-54
2023/07/12 11:17:09;;;;;;;8.45;6.35;;;;;;;34.51;38.07;66682.75;5052164;28;20256;-55
2023/07/12 11:19:40;;;;;;;10.68;6.45;;;;;;;34.80;37.59;66711.44;5052686;28;20225;-57
2023/07/12 11:22:17;;;;;;;8.98;7.30;;;;;;;35.53;37.08;66792.59;5052279;28;20327;-55
2023/07/12 11:24:45;;;;;;;13.38;6.70;;;;;;;34.43;37.25;66673.78;5052298;28;20208;-55
2023/07/12 11:27:32;;;;;;;11.30;6.38;;;;;;;34.25;37.39;66650.47;5052367;28;20228;-55
2023/07/12 11:30:15;;;;;;;10.90;6.47;;;;;;;34.38;37.19;66668.19;5052432;28;20202;-56
2023/07/12 11:32:45;;;;;;;8.40;7.00;;;;;;;34.92;37.61;66727.47;5052368;28;20247;-57